sensor_id;sensor_type;location;lat;lon;timestamp;P1;durP1;ratioP1;P2;durP2;ratioP2
73321;SDS011;61549;37.044;22.128;2022-10-18T00:01:37;3.08;;;2.28;;
73321;SDS011;61549;37.044;22.128;2022-10-18T00:04:03;3.42;;;2.20;;
73321;SDS011;61549;37.044;22.128;2022-10-18T00:06:29;2.95;;;2.30;;
73321;SDS011;61549;37.044;22.128;2022-10-18T00:08:55;3.72;;;2.20;;
73321;SDS011;61549;37.044;22.128;2022-10-18T00:11:21;3.92;;;2.00;;
73321;SDS011;61549;37.044;22.128;2022-10-18T00:13:47;2.90;;;2.00;;
73321;SDS011;61549;37.044;22.128;2022-10-18T00:16:13;3.55;;;2.28;;
73321;SDS011;61549;37.044;22.128;2022-10-18T00:18:40;2.97;;;2.15;;
73321;SDS011;61549;37.044;22.128;2022-10-18T00:21:09;3.30;;;2.40;;
73321;SDS011;61549;37.044;22.128;2022-10-18T00:23:37;4.13;;;2.35;;
73321;SDS011;61549;37.044;22.128;2022-10-18T00:26:05;4.32;;;2.30;;
73321;SDS011;61549;37.044;22.128;2022-10-18T00:28:34;4.45;;;2.05;;
73321;SDS011;61549;37.044;22.128;2022-10-18T00:31:11;3.97;;;2.38;;
73321;SDS011;61549;37.044;22.128;2022-10-18T00:33:41;6.93;;;2.50;;
73321;SDS011;61549;37.044;22.128;2022-10-18T00:36:09;2.50;;;2.10;;
73321;SDS011;61549;37.044;22.128;2022-10-18T00:38:35;5.50;;;2.30;;
73321;SDS011;61549;37.044;22.128;2022-10-18T00:41:03;3.58;;;2.30;;
73321;SDS011;61549;37.044;22.128;2022-10-18T00:43:30;5.32;;;2.60;;
73321;SDS011;61549;37.044;22.128;2022-10-18T00:45:55;3.53;;;2.30;;
73321;SDS011;61549;37.044;22.128;2022-10-18T00:48:22;3.00;;;2.35;;
73321;SDS011;61549;37.044;22.128;2022-10-18T00:50:48;4.00;;;2.35;;
73321;SDS011;61549;37.044;22.128;2022-10-18T00:53:17;3.58;;;2.50;;
73321;SDS011;61549;37.044;22.128;2022-10-18T00:55:46;5.63;;;2.50;;
73321;SDS011;61549;37.044;22.128;2022-10-18T00:58:13;4.40;;;2.40;;
73321;SDS011;61549;37.044;22.128;2022-10-18T01:00:41;4.03;;;2.40;;
73321;SDS011;61549;37.044;22.128;2022-10-18T01:03:07;3.17;;;2.17;;
73321;SDS011;61549;37.044;22.128;2022-10-18T01:05:36;4.30;;;2.20;;
73321;SDS011;61549;37.044;22.128;2022-10-18T01:21:37;5.63;;;2.72;;
73321;SDS011;61549;37.044;22.128;2022-10-18T01:24:14;6.20;;;2.65;;
73321;SDS011;61549;37.044;22.128;2022-10-18T01:29:43;2.83;;;2.45;;
73321;SDS011;61549;37.044;22.128;2022-10-18T01:32:13;4.47;;;2.67;;
73321;SDS011;61549;37.044;22.128;2022-10-18T01:34:44;4.25;;;2.13;;
73321;SDS011;61549;37.044;22.128;2022-10-18T01:37:13;3.60;;;2.33;;
73321;SDS011;61549;37.044;22.128;2022-10-18T01:39:42;3.30;;;2.47;;
73321;SDS011;61549;37.044;22.128;2022-10-18T01:42:12;4.25;;;2.70;;
73321;SDS011;61549;37.044;22.128;2022-10-18T01:44:41;4.20;;;2.30;;
73321;SDS011;61549;37.044;22.128;2022-10-18T01:47:09;4.13;;;2.70;;
73321;SDS011;61549;37.044;22.128;2022-10-18T01:49:37;4.80;;;2.72;;
73321;SDS011;61549;37.044;22.128;2022-10-18T01:52:04;7.05;;;2.65;;
73321;SDS011;61549;37.044;22.128;2022-10-18T01:54:32;4.28;;;2.65;;
73321;SDS011;61549;37.044;22.128;2022-10-18T01:59:56;4.05;;;2.60;;
73321;SDS011;61549;37.044;22.128;2022-10-18T02:03:09;3.30;;;2.40;;
73321;SDS011;61549;37.044;22.128;2022-10-18T02:05:50;3.90;;;2.42;;
73321;SDS011;61549;37.044;22.128;2022-10-18T02:08:24;3.30;;;2.47;;
73321;SDS011;61549;37.044;22.128;2022-10-18T02:10:58;4.43;;;2.40;;
73321;SDS011;61549;37.044;22.128;2022-10-18T02:13:28;5.18;;;2.83;;
73321;SDS011;61549;37.044;22.128;2022-10-18T02:16:16;4.50;;;2.50;;
73321;SDS011;61549;37.044;22.128;2022-10-18T02:18:59;3.97;;;2.67;;
73321;SDS011;61549;37.044;22.128;2022-10-18T02:21:30;4.00;;;2.78;;
73321;SDS011;61549;37.044;22.128;2022-10-18T02:23:57;3.47;;;2.30;;
73321;SDS011;61549;37.044;22.128;2022-10-18T02:26:24;4.82;;;2.40;;
73321;SDS011;61549;37.044;22.128;2022-10-18T02:28:50;4.38;;;2.80;;
73321;SDS011;61549;37.044;22.128;2022-10-18T02:36:36;2.92;;;2.50;;
73321;SDS011;61549;37.044;22.128;2022-10-18T02:39:12;4.13;;;2.72;;
73321;SDS011;61549;37.044;22.128;2022-10-18T02:41:40;4.10;;;2.67;;
73321;SDS011;61549;37.044;22.128;2022-10-18T02:44:07;5.10;;;2.80;;
73321;SDS011;61549;37.044;22.128;2022-10-18T02:46:33;4.05;;;3.08;;
73321;SDS011;61549;37.044;22.128;2022-10-18T02:48:59;5.00;;;3.00;;
73321;SDS011;61549;37.044;22.128;2022-10-18T02:51:25;5.38;;;2.85;;
73321;SDS011;61549;37.044;22.128;2022-10-18T02:53:51;4.32;;;2.60;;
73321;SDS011;61549;37.044;22.128;2022-10-18T02:56:17;4.25;;;2.65;;
73321;SDS011;61549;37.044;22.128;2022-10-18T02:58:43;4.18;;;2.67;;
73321;SDS011;61549;37.044;22.128;2022-10-18T03:01:09;5.95;;;2.70;;
73321;SDS011;61549;37.044;22.128;2022-10-18T03:03:35;3.95;;;2.60;;
73321;SDS011;61549;37.044;22.128;2022-10-18T03:06:00;3.22;;;2.30;;
73321;SDS011;61549;37.044;22.128;2022-10-18T03:08:26;6.15;;;2.70;;
73321;SDS011;61549;37.044;22.128;2022-10-18T03:10:52;3.28;;;2.40;;
73321;SDS011;61549;37.044;22.128;2022-10-18T03:13:18;2.90;;;2.63;;
73321;SDS011;61549;37.044;22.128;2022-10-18T03:15:44;4.53;;;2.55;;
73321;SDS011;61549;37.044;22.128;2022-10-18T03:18:11;7.82;;;2.70;;
73321;SDS011;61549;37.044;22.128;2022-10-18T03:20:37;3.63;;;2.75;;
73321;SDS011;61549;37.044;22.128;2022-10-18T03:23:02;3.88;;;2.50;;
73321;SDS011;61549;37.044;22.128;2022-10-18T03:25:28;3.58;;;2.42;;
73321;SDS011;61549;37.044;22.128;2022-10-18T03:27:54;3.85;;;2.50;;
73321;SDS011;61549;37.044;22.128;2022-10-18T03:30:20;5.15;;;2.70;;
73321;SDS011;61549;37.044;22.128;2022-10-18T03:32:46;4.40;;;2.75;;
73321;SDS011;61549;37.044;22.128;2022-10-18T03:35:12;5.65;;;2.47;;
73321;SDS011;61549;37.044;22.128;2022-10-18T03:37:37;3.20;;;2.53;;
73321;SDS011;61549;37.044;22.128;2022-10-18T03:40:04;4.45;;;2.40;;
73321;SDS011;61549;37.044;22.128;2022-10-18T03:42:30;5.05;;;2.70;;
73321;SDS011;61549;37.044;22.128;2022-10-18T03:44:56;4.03;;;2.42;;
73321;SDS011;61549;37.044;22.128;2022-10-18T03:47:22;4.80;;;2.70;;
73321;SDS011;61549;37.044;22.128;2022-10-18T03:49:48;4.70;;;2.58;;
73321;SDS011;61549;37.044;22.128;2022-10-18T03:52:14;4.90;;;2.30;;
73321;SDS011;61549;37.044;22.128;2022-10-18T03:54:39;4.88;;;2.60;;
73321;SDS011;61549;37.044;22.128;2022-10-18T03:57:05;3.80;;;2.40;;
73321;SDS011;61549;37.044;22.128;2022-10-18T03:59:31;3.58;;;2.60;;
73321;SDS011;61549;37.044;22.128;2022-10-18T04:01:57;4.32;;;2.63;;
73321;SDS011;61549;37.044;22.128;2022-10-18T04:04:23;4.32;;;2.78;;
73321;SDS011;61549;37.044;22.128;2022-10-18T04:06:49;5.47;;;2.83;;
73321;SDS011;61549;37.044;22.128;2022-10-18T04:09:15;5.15;;;2.70;;
73321;SDS011;61549;37.044;22.128;2022-10-18T04:11:42;3.65;;;2.88;;
73321;SDS011;61549;37.044;22.128;2022-10-18T04:14:08;3.97;;;2.72;;
73321;SDS011;61549;37.044;22.128;2022-10-18T04:16:34;3.65;;;2.80;;
73321;SDS011;61549;37.044;22.128;2022-10-18T04:19:00;5.78;;;2.92;;
73321;SDS011;61549;37.044;22.128;2022-10-18T04:21:26;5.07;;;3.05;;
73321;SDS011;61549;37.044;22.128;2022-10-18T04:23:52;3.97;;;2.97;;
73321;SDS011;61549;37.044;22.128;2022-10-18T04:26:17;5.30;;;3.13;;
73321;SDS011;61549;37.044;22.128;2022-10-18T04:28:43;4.82;;;3.08;;
73321;SDS011;61549;37.044;22.128;2022-10-18T04:31:09;4.55;;;2.90;;
73321;SDS011;61549;37.044;22.128;2022-10-18T04:33:36;4.20;;;3.13;;
73321;SDS011;61549;37.044;22.128;2022-10-18T04:36:02;5.95;;;2.95;;
73321;SDS011;61549;37.044;22.128;2022-10-18T04:38:28;4.53;;;3.00;;
73321;SDS011;61549;37.044;22.128;2022-10-18T04:40:54;4.35;;;2.90;;
73321;SDS011;61549;37.044;22.128;2022-10-18T04:43:19;4.78;;;2.83;;
73321;SDS011;61549;37.044;22.128;2022-10-18T04:45:46;6.07;;;2.95;;
73321;SDS011;61549;37.044;22.128;2022-10-18T04:48:13;4.20;;;2.80;;
73321;SDS011;61549;37.044;22.128;2022-10-18T04:50:39;5.22;;;2.65;;
73321;SDS011;61549;37.044;22.128;2022-10-18T04:53:06;3.28;;;2.40;;
73321;SDS011;61549;37.044;22.128;2022-10-18T04:55:32;4.05;;;2.35;;
73321;SDS011;61549;37.044;22.128;2022-10-18T04:57:57;5.25;;;2.70;;
73321;SDS011;61549;37.044;22.128;2022-10-18T05:00:23;3.75;;;2.80;;
73321;SDS011;61549;37.044;22.128;2022-10-18T05:02:49;6.65;;;2.85;;
73321;SDS011;61549;37.044;22.128;2022-10-18T05:05:21;4.35;;;2.80;;
73321;SDS011;61549;37.044;22.128;2022-10-18T05:07:47;4.25;;;3.15;;
73321;SDS011;61549;37.044;22.128;2022-10-18T05:10:13;7.70;;;3.22;;
73321;SDS011;61549;37.044;22.128;2022-10-18T05:12:39;8.00;;;3.13;;
73321;SDS011;61549;37.044;22.128;2022-10-18T05:15:05;4.95;;;2.90;;
73321;SDS011;61549;37.044;22.128;2022-10-18T05:17:31;6.50;;;2.90;;
73321;SDS011;61549;37.044;22.128;2022-10-18T05:19:57;4.20;;;3.08;;
73321;SDS011;61549;37.044;22.128;2022-10-18T05:22:23;4.78;;;2.95;;
73321;SDS011;61549;37.044;22.128;2022-10-18T05:24:49;7.28;;;3.30;;
73321;SDS011;61549;37.044;22.128;2022-10-18T05:27:15;5.88;;;3.03;;
73321;SDS011;61549;37.044;22.128;2022-10-18T05:29:41;6.10;;;2.80;;
73321;SDS011;61549;37.044;22.128;2022-10-18T05:32:07;5.32;;;2.90;;
73321;SDS011;61549;37.044;22.128;2022-10-18T05:34:33;4.78;;;3.08;;
73321;SDS011;61549;37.044;22.128;2022-10-18T05:36:59;6.50;;;2.97;;
73321;SDS011;61549;37.044;22.128;2022-10-18T05:39:25;7.00;;;3.17;;
73321;SDS011;61549;37.044;22.128;2022-10-18T05:41:51;5.28;;;3.05;;
73321;SDS011;61549;37.044;22.128;2022-10-18T05:44:16;8.20;;;3.20;;
73321;SDS011;61549;37.044;22.128;2022-10-18T05:46:42;6.32;;;2.70;;
73321;SDS011;61549;37.044;22.128;2022-10-18T05:49:10;4.50;;;2.58;;
73321;SDS011;61549;37.044;22.128;2022-10-18T05:51:36;4.70;;;2.90;;
73321;SDS011;61549;37.044;22.128;2022-10-18T05:54:02;5.63;;;2.88;;
73321;SDS011;61549;37.044;22.128;2022-10-18T05:56:28;5.07;;;2.97;;
73321;SDS011;61549;37.044;22.128;2022-10-18T05:58:54;5.75;;;2.80;;
73321;SDS011;61549;37.044;22.128;2022-10-18T06:01:21;4.32;;;3.30;;
73321;SDS011;61549;37.044;22.128;2022-10-18T06:03:47;6.82;;;3.10;;
73321;SDS011;61549;37.044;22.128;2022-10-18T06:06:13;4.55;;;2.80;;
73321;SDS011;61549;37.044;22.128;2022-10-18T06:08:39;7.05;;;2.83;;
73321;SDS011;61549;37.044;22.128;2022-10-18T06:11:14;8.02;;;3.20;;
73321;SDS011;61549;37.044;22.128;2022-10-18T06:13:48;4.03;;;3.05;;
73321;SDS011;61549;37.044;22.128;2022-10-18T06:16:16;9.05;;;3.10;;
73321;SDS011;61549;37.044;22.128;2022-10-18T06:18:46;7.47;;;3.40;;
73321;SDS011;61549;37.044;22.128;2022-10-18T06:21:17;7.53;;;3.25;;
73321;SDS011;61549;37.044;22.128;2022-10-18T06:23:47;5.97;;;2.50;;
73321;SDS011;61549;37.044;22.128;2022-10-18T06:26:14;5.40;;;2.70;;
73321;SDS011;61549;37.044;22.128;2022-10-18T06:28:40;4.40;;;2.38;;
73321;SDS011;61549;37.044;22.128;2022-10-18T06:31:06;3.65;;;1.90;;
73321;SDS011;61549;37.044;22.128;2022-10-18T06:33:33;4.00;;;2.47;;
73321;SDS011;61549;37.044;22.128;2022-10-18T06:36:00;2.88;;;2.20;;
73321;SDS011;61549;37.044;22.128;2022-10-18T06:38:35;3.50;;;2.17;;
73321;SDS011;61549;37.044;22.128;2022-10-18T06:41:02;3.78;;;2.10;;
73321;SDS011;61549;37.044;22.128;2022-10-18T06:43:29;4.95;;;2.33;;
73321;SDS011;61549;37.044;22.128;2022-10-18T06:45:55;3.92;;;2.50;;
73321;SDS011;61549;37.044;22.128;2022-10-18T06:48:21;3.63;;;2.20;;
73321;SDS011;61549;37.044;22.128;2022-10-18T06:50:53;5.18;;;2.40;;
73321;SDS011;61549;37.044;22.128;2022-10-18T06:53:21;3.65;;;2.20;;
73321;SDS011;61549;37.044;22.128;2022-10-18T06:55:48;3.50;;;2.00;;
73321;SDS011;61549;37.044;22.128;2022-10-18T06:58:14;2.95;;;2.10;;
73321;SDS011;61549;37.044;22.128;2022-10-18T07:00:40;5.13;;;2.58;;
73321;SDS011;61549;37.044;22.128;2022-10-18T07:03:06;3.75;;;2.40;;
73321;SDS011;61549;37.044;22.128;2022-10-18T07:05:32;3.72;;;2.00;;
73321;SDS011;61549;37.044;22.128;2022-10-18T07:07:58;2.83;;;2.30;;
73321;SDS011;61549;37.044;22.128;2022-10-18T07:10:24;6.35;;;2.58;;
73321;SDS011;61549;37.044;22.128;2022-10-18T07:12:50;4.88;;;2.50;;
73321;SDS011;61549;37.044;22.128;2022-10-18T07:15:16;3.08;;;2.30;;
73321;SDS011;61549;37.044;22.128;2022-10-18T07:17:43;5.50;;;2.45;;
73321;SDS011;61549;37.044;22.128;2022-10-18T07:20:10;4.05;;;2.42;;
73321;SDS011;61549;37.044;22.128;2022-10-18T07:22:36;4.90;;;2.35;;
73321;SDS011;61549;37.044;22.128;2022-10-18T07:25:05;4.55;;;2.22;;
73321;SDS011;61549;37.044;22.128;2022-10-18T07:27:35;2.72;;;2.33;;
73321;SDS011;61549;37.044;22.128;2022-10-18T07:30:06;4.35;;;2.30;;
73321;SDS011;61549;37.044;22.128;2022-10-18T07:32:33;3.80;;;2.30;;
73321;SDS011;61549;37.044;22.128;2022-10-18T07:34:59;3.50;;;2.10;;
73321;SDS011;61549;37.044;22.128;2022-10-18T07:37:25;2.58;;;1.98;;
73321;SDS011;61549;37.044;22.128;2022-10-18T07:39:51;5.78;;;2.35;;
73321;SDS011;61549;37.044;22.128;2022-10-18T07:42:17;3.75;;;2.42;;
73321;SDS011;61549;37.044;22.128;2022-10-18T07:44:43;2.97;;;2.20;;
73321;SDS011;61549;37.044;22.128;2022-10-18T07:47:09;3.05;;;2.15;;
73321;SDS011;61549;37.044;22.128;2022-10-18T07:49:35;4.53;;;2.20;;
73321;SDS011;61549;37.044;22.128;2022-10-18T07:52:00;3.70;;;2.10;;
73321;SDS011;61549;37.044;22.128;2022-10-18T07:54:26;3.83;;;2.10;;
73321;SDS011;61549;37.044;22.128;2022-10-18T07:56:52;3.05;;;2.10;;
73321;SDS011;61549;37.044;22.128;2022-10-18T07:59:18;2.60;;;1.80;;
73321;SDS011;61549;37.044;22.128;2022-10-18T08:01:44;2.90;;;2.20;;
73321;SDS011;61549;37.044;22.128;2022-10-18T08:04:10;3.30;;;2.17;;
73321;SDS011;61549;37.044;22.128;2022-10-18T08:06:36;4.20;;;2.40;;
73321;SDS011;61549;37.044;22.128;2022-10-18T08:09:02;3.38;;;1.80;;
73321;SDS011;61549;37.044;22.128;2022-10-18T08:11:28;4.43;;;2.13;;
73321;SDS011;61549;37.044;22.128;2022-10-18T08:13:54;3.60;;;1.92;;
73321;SDS011;61549;37.044;22.128;2022-10-18T08:16:21;2.45;;;2.08;;
73321;SDS011;61549;37.044;22.128;2022-10-18T08:18:48;5.38;;;2.10;;
73321;SDS011;61549;37.044;22.128;2022-10-18T08:21:15;3.88;;;2.22;;
73321;SDS011;61549;37.044;22.128;2022-10-18T08:23:42;2.45;;;1.90;;
73321;SDS011;61549;37.044;22.128;2022-10-18T08:26:10;2.90;;;1.90;;
73321;SDS011;61549;37.044;22.128;2022-10-18T08:28:37;3.45;;;1.80;;
73321;SDS011;61549;37.044;22.128;2022-10-18T08:31:04;3.28;;;2.00;;
73321;SDS011;61549;37.044;22.128;2022-10-18T08:33:33;3.67;;;1.70;;
73321;SDS011;61549;37.044;22.128;2022-10-18T08:36:00;3.88;;;2.10;;
73321;SDS011;61549;37.044;22.128;2022-10-18T08:38:30;2.88;;;1.70;;
73321;SDS011;61549;37.044;22.128;2022-10-18T08:41:17;3.42;;;2.05;;
73321;SDS011;61549;37.044;22.128;2022-10-18T08:46:37;2.20;;;1.83;;
73321;SDS011;61549;37.044;22.128;2022-10-18T08:49:10;2.83;;;2.00;;
73321;SDS011;61549;37.044;22.128;2022-10-18T08:51:45;4.95;;;1.95;;
73321;SDS011;61549;37.044;22.128;2022-10-18T08:54:26;2.40;;;1.90;;
73321;SDS011;61549;37.044;22.128;2022-10-18T08:57:24;4.80;;;2.05;;
73321;SDS011;61549;37.044;22.128;2022-10-18T08:59:50;1.90;;;1.67;;
73321;SDS011;61549;37.044;22.128;2022-10-18T09:07:52;4.18;;;1.92;;
73321;SDS011;61549;37.044;22.128;2022-10-18T09:10:43;3.85;;;2.00;;
73321;SDS011;61549;37.044;22.128;2022-10-18T09:13:42;2.95;;;1.95;;
73321;SDS011;61549;37.044;22.128;2022-10-18T09:22:17;3.30;;;2.00;;
73321;SDS011;61549;37.044;22.128;2022-10-18T09:24:45;2.25;;;1.90;;
73321;SDS011;61549;37.044;22.128;2022-10-18T09:27:25;3.20;;;1.98;;
73321;SDS011;61549;37.044;22.128;2022-10-18T09:32:47;3.90;;;1.83;;
73321;SDS011;61549;37.044;22.128;2022-10-18T09:35:24;2.67;;;2.10;;
73321;SDS011;61549;37.044;22.128;2022-10-18T09:37:59;2.85;;;1.90;;
73321;SDS011;61549;37.044;22.128;2022-10-18T09:40:29;2.10;;;1.83;;
73321;SDS011;61549;37.044;22.128;2022-10-18T09:43:11;3.97;;;1.70;;
73321;SDS011;61549;37.044;22.128;2022-10-18T09:45:43;2.65;;;1.88;;
73321;SDS011;61549;37.044;22.128;2022-10-18T09:48:13;3.58;;;1.80;;
73321;SDS011;61549;37.044;22.128;2022-10-18T09:50:59;4.30;;;1.80;;
73321;SDS011;61549;37.044;22.128;2022-10-18T09:56:20;2.92;;;1.70;;
73321;SDS011;61549;37.044;22.128;2022-10-18T09:58:50;3.50;;;1.70;;
73321;SDS011;61549;37.044;22.128;2022-10-18T10:01:20;2.63;;;1.80;;
73321;SDS011;61549;37.044;22.128;2022-10-18T10:03:51;2.75;;;1.98;;
73321;SDS011;61549;37.044;22.128;2022-10-18T10:08:53;1.95;;;1.75;;
73321;SDS011;61549;37.044;22.128;2022-10-18T10:14:09;2.83;;;1.75;;
73321;SDS011;61549;37.044;22.128;2022-10-18T10:19:17;3.42;;;1.77;;
73321;SDS011;61549;37.044;22.128;2022-10-18T10:21:59;3.85;;;1.88;;
73321;SDS011;61549;37.044;22.128;2022-10-18T10:27:28;4.40;;;2.00;;
73321;SDS011;61549;37.044;22.128;2022-10-18T10:30:02;1.85;;;1.60;;
73321;SDS011;61549;37.044;22.128;2022-10-18T10:32:46;3.05;;;2.10;;
73321;SDS011;61549;37.044;22.128;2022-10-18T10:35:23;3.33;;;1.80;;
73321;SDS011;61549;37.044;22.128;2022-10-18T10:38:06;4.32;;;1.65;;
73321;SDS011;61549;37.044;22.128;2022-10-18T10:40:47;1.60;;;1.50;;
73321;SDS011;61549;37.044;22.128;2022-10-18T10:43:16;3.08;;;1.65;;
73321;SDS011;61549;37.044;22.128;2022-10-18T10:46:02;1.67;;;1.58;;
73321;SDS011;61549;37.044;22.128;2022-10-18T10:51:15;2.58;;;1.63;;
73321;SDS011;61549;37.044;22.128;2022-10-18T10:53:58;2.30;;;1.70;;
73321;SDS011;61549;37.044;22.128;2022-10-18T10:56:57;1.77;;;1.60;;
73321;SDS011;61549;37.044;22.128;2022-10-18T10:59:30;2.85;;;1.63;;
73321;SDS011;61549;37.044;22.128;2022-10-18T11:02:30;1.92;;;1.65;;
73321;SDS011;61549;37.044;22.128;2022-10-18T11:07:51;2.53;;;1.65;;
73321;SDS011;61549;37.044;22.128;2022-10-18T11:10:22;3.47;;;1.77;;
73321;SDS011;61549;37.044;22.128;2022-10-18T11:13:14;2.95;;;1.80;;
73321;SDS011;61549;37.044;22.128;2022-10-18T11:15:54;2.85;;;1.95;;
73321;SDS011;61549;37.044;22.128;2022-10-18T11:18:34;2.65;;;1.85;;
73321;SDS011;61549;37.044;22.128;2022-10-18T11:23:53;2.55;;;1.60;;
73321;SDS011;61549;37.044;22.128;2022-10-18T11:34:49;3.50;;;1.90;;
73321;SDS011;61549;37.044;22.128;2022-10-18T11:38:05;2.33;;;1.90;;
73321;SDS011;61549;37.044;22.128;2022-10-18T11:40:54;2.30;;;1.85;;
73321;SDS011;61549;37.044;22.128;2022-10-18T11:51:46;2.42;;;1.70;;
73321;SDS011;61549;37.044;22.128;2022-10-18T11:54:56;2.85;;;1.80;;
73321;SDS011;61549;37.044;22.128;2022-10-18T12:05:42;3.17;;;1.90;;
73321;SDS011;61549;37.044;22.128;2022-10-18T12:08:12;4.53;;;1.90;;
73321;SDS011;61549;37.044;22.128;2022-10-18T12:10:42;2.40;;;1.65;;
73321;SDS011;61549;37.044;22.128;2022-10-18T12:13:22;3.03;;;1.70;;
73321;SDS011;61549;37.044;22.128;2022-10-18T12:16:05;2.25;;;1.70;;
73321;SDS011;61549;37.044;22.128;2022-10-18T12:18:32;2.72;;;1.75;;
73321;SDS011;61549;37.044;22.128;2022-10-18T12:21:00;3.33;;;1.63;;
73321;SDS011;61549;37.044;22.128;2022-10-18T12:26:08;3.70;;;1.85;;
73321;SDS011;61549;37.044;22.128;2022-10-18T12:42:20;2.17;;;1.58;;
73321;SDS011;61549;37.044;22.128;2022-10-18T12:47:41;3.15;;;1.90;;
73321;SDS011;61549;37.044;22.128;2022-10-18T12:50:28;2.67;;;1.67;;
73321;SDS011;61549;37.044;22.128;2022-10-18T12:53:06;3.58;;;1.90;;
73321;SDS011;61549;37.044;22.128;2022-10-18T12:55:42;4.40;;;1.70;;
73321;SDS011;61549;37.044;22.128;2022-10-18T13:18:52;2.35;;;1.80;;
73321;SDS011;61549;37.044;22.128;2022-10-18T13:32:33;2.63;;;1.90;;
73321;SDS011;61549;37.044;22.128;2022-10-18T13:35:03;3.92;;;2.10;;
73321;SDS011;61549;37.044;22.128;2022-10-18T13:46:18;2.60;;;2.03;;
73321;SDS011;61549;37.044;22.128;2022-10-18T13:48:46;3.92;;;1.98;;
73321;SDS011;61549;37.044;22.128;2022-10-18T13:51:34;4.20;;;2.15;;
73321;SDS011;61549;37.044;22.128;2022-10-18T13:57:06;2.80;;;2.10;;
73321;SDS011;61549;37.044;22.128;2022-10-18T14:00:04;3.75;;;2.08;;
73321;SDS011;61549;37.044;22.128;2022-10-18T14:03:07;2.70;;;1.92;;
73321;SDS011;61549;37.044;22.128;2022-10-18T14:06:00;2.85;;;1.92;;
73321;SDS011;61549;37.044;22.128;2022-10-18T14:14:32;5.43;;;2.00;;
73321;SDS011;61549;37.044;22.128;2022-10-18T14:19:57;3.03;;;1.80;;
73321;SDS011;61549;37.044;22.128;2022-10-18T14:22:40;3.05;;;1.92;;
73321;SDS011;61549;37.044;22.128;2022-10-18T14:25:29;3.10;;;2.00;;
73321;SDS011;61549;37.044;22.128;2022-10-18T14:30:59;3.42;;;1.70;;
73321;SDS011;61549;37.044;22.128;2022-10-18T14:33:34;2.78;;;1.92;;
73321;SDS011;61549;37.044;22.128;2022-10-18T14:36:12;2.83;;;1.90;;
73321;SDS011;61549;37.044;22.128;2022-10-18T14:38:49;4.38;;;2.08;;
73321;SDS011;61549;37.044;22.128;2022-10-18T14:41:34;2.38;;;2.03;;
73321;SDS011;61549;37.044;22.128;2022-10-18T14:44:16;3.30;;;2.10;;
73321;SDS011;61549;37.044;22.128;2022-10-18T14:46:50;3.35;;;2.20;;
73321;SDS011;61549;37.044;22.128;2022-10-18T14:49:23;2.35;;;1.80;;
73321;SDS011;61549;37.044;22.128;2022-10-18T14:51:51;4.13;;;2.00;;
73321;SDS011;61549;37.044;22.128;2022-10-18T14:54:35;3.50;;;2.08;;
73321;SDS011;61549;37.044;22.128;2022-10-18T14:57:05;5.00;;;2.28;;
73321;SDS011;61549;37.044;22.128;2022-10-18T14:59:43;5.20;;;2.10;;
73321;SDS011;61549;37.044;22.128;2022-10-18T15:02:17;3.65;;;2.00;;
73321;SDS011;61549;37.044;22.128;2022-10-18T15:04:52;2.03;;;1.83;;
73321;SDS011;61549;37.044;22.128;2022-10-18T15:07:38;3.38;;;2.08;;
73321;SDS011;61549;37.044;22.128;2022-10-18T15:10:05;6.07;;;2.40;;
73321;SDS011;61549;37.044;22.128;2022-10-18T15:12:32;4.68;;;2.22;;
73321;SDS011;61549;37.044;22.128;2022-10-18T15:14:59;5.75;;;2.13;;
73321;SDS011;61549;37.044;22.128;2022-10-18T15:17:27;4.25;;;2.10;;
73321;SDS011;61549;37.044;22.128;2022-10-18T15:19:56;2.67;;;2.10;;
73321;SDS011;61549;37.044;22.128;2022-10-18T15:22:29;3.38;;;2.25;;
73321;SDS011;61549;37.044;22.128;2022-10-18T15:25:08;4.50;;;2.10;;
73321;SDS011;61549;37.044;22.128;2022-10-18T15:27:51;2.80;;;2.00;;
73321;SDS011;61549;37.044;22.128;2022-10-18T15:30:38;3.25;;;2.33;;
73321;SDS011;61549;37.044;22.128;2022-10-18T15:33:07;4.95;;;2.45;;
73321;SDS011;61549;37.044;22.128;2022-10-18T15:35:44;3.90;;;2.50;;
73321;SDS011;61549;37.044;22.128;2022-10-18T15:40:45;3.83;;;2.65;;
73321;SDS011;61549;37.044;22.128;2022-10-18T15:43:44;3.53;;;2.40;;
73321;SDS011;61549;37.044;22.128;2022-10-18T15:46:03;7.30;;;3.00;;
73321;SDS011;61549;37.044;22.128;2022-10-18T15:48:32;4.47;;;2.38;;
73321;SDS011;61549;37.044;22.128;2022-10-18T15:51:01;4.93;;;2.25;;
73321;SDS011;61549;37.044;22.128;2022-10-18T15:53:49;4.75;;;2.28;;
73321;SDS011;61549;37.044;22.128;2022-10-18T15:56:33;4.25;;;2.72;;
73321;SDS011;61549;37.044;22.128;2022-10-18T15:59:02;6.43;;;3.22;;
73321;SDS011;61549;37.044;22.128;2022-10-18T16:01:42;4.30;;;2.80;;
73321;SDS011;61549;37.044;22.128;2022-10-18T16:04:25;4.63;;;2.67;;
73321;SDS011;61549;37.044;22.128;2022-10-18T16:06:55;5.78;;;3.13;;
73321;SDS011;61549;37.044;22.128;2022-10-18T16:09:23;5.95;;;3.20;;
73321;SDS011;61549;37.044;22.128;2022-10-18T16:11:51;4.57;;;3.10;;
73321;SDS011;61549;37.044;22.128;2022-10-18T16:14:17;6.85;;;3.53;;
73321;SDS011;61549;37.044;22.128;2022-10-18T16:16:43;5.95;;;3.35;;
73321;SDS011;61549;37.044;22.128;2022-10-18T16:19:13;5.07;;;3.15;;
73321;SDS011;61549;37.044;22.128;2022-10-18T16:21:43;3.97;;;3.42;;
73321;SDS011;61549;37.044;22.128;2022-10-18T16:24:09;5.93;;;3.50;;
73321;SDS011;61549;37.044;22.128;2022-10-18T16:26:35;4.05;;;3.47;;
73321;SDS011;61549;37.044;22.128;2022-10-18T16:29:01;6.72;;;3.42;;
73321;SDS011;61549;37.044;22.128;2022-10-18T16:31:29;4.68;;;3.20;;
73321;SDS011;61549;37.044;22.128;2022-10-18T16:33:56;4.50;;;3.28;;
73321;SDS011;61549;37.044;22.128;2022-10-18T16:36:24;6.00;;;3.53;;
73321;SDS011;61549;37.044;22.128;2022-10-18T16:38:53;6.38;;;3.17;;
73321;SDS011;61549;37.044;22.128;2022-10-18T16:41:20;5.07;;;3.13;;
73321;SDS011;61549;37.044;22.128;2022-10-18T16:43:47;5.57;;;3.50;;
73321;SDS011;61549;37.044;22.128;2022-10-18T16:46:15;4.82;;;3.70;;
73321;SDS011;61549;37.044;22.128;2022-10-18T16:48:48;5.75;;;3.40;;
73321;SDS011;61549;37.044;22.128;2022-10-18T16:51:16;6.50;;;3.50;;
73321;SDS011;61549;37.044;22.128;2022-10-18T16:53:42;5.22;;;3.22;;
73321;SDS011;61549;37.044;22.128;2022-10-18T16:56:15;4.80;;;3.45;;
73321;SDS011;61549;37.044;22.128;2022-10-18T16:58:43;5.35;;;3.42;;
73321;SDS011;61549;37.044;22.128;2022-10-18T17:01:17;6.57;;;3.42;;
73321;SDS011;61549;37.044;22.128;2022-10-18T17:03:45;5.50;;;3.45;;
73321;SDS011;61549;37.044;22.128;2022-10-18T17:06:15;4.00;;;3.30;;
73321;SDS011;61549;37.044;22.128;2022-10-18T17:08:43;5.80;;;3.17;;
73321;SDS011;61549;37.044;22.128;2022-10-18T17:11:10;2.92;;;2.47;;
73321;SDS011;61549;37.044;22.128;2022-10-18T17:13:37;2.92;;;2.63;;
73321;SDS011;61549;37.044;22.128;2022-10-18T17:16:03;5.22;;;3.20;;
73321;SDS011;61549;37.044;22.128;2022-10-18T17:18:29;3.78;;;2.90;;
73321;SDS011;61549;37.044;22.128;2022-10-18T17:20:56;5.03;;;3.22;;
73321;SDS011;61549;37.044;22.128;2022-10-18T17:23:24;6.20;;;2.72;;
73321;SDS011;61549;37.044;22.128;2022-10-18T17:25:50;4.22;;;3.00;;
73321;SDS011;61549;37.044;22.128;2022-10-18T17:28:18;3.20;;;2.88;;
73321;SDS011;61549;37.044;22.128;2022-10-18T17:30:45;3.53;;;2.67;;
73321;SDS011;61549;37.044;22.128;2022-10-18T17:33:12;4.07;;;2.80;;
73321;SDS011;61549;37.044;22.128;2022-10-18T17:35:39;2.92;;;2.50;;
73321;SDS011;61549;37.044;22.128;2022-10-18T17:38:05;3.78;;;2.65;;
73321;SDS011;61549;37.044;22.128;2022-10-18T17:40:32;3.42;;;2.40;;